Agua Dulce, California
Current Conditions -  °F | °C
As of 3:56 AM on Saturday 25 Oct 2014 (Local Time) from KWJF Reporting Station
Clear Clear  
Wind Chill: 55°   Ceiling: Unl
Heat Index: 55°   Visibility: 10mi
Dew Point: 25°   Wind: 0mph
Humidity: 31%   Direction: NA
Pressure: 30.04"   Gusts: NA
Location:  34.513°N, 118.402°W
Report Text: KWJF 251056Z 00000KT 10SM CLR 13/M04 A3004 RMK AO2 SLP160 T01281039
Loading
Personal Weather Stations






























Interactive Weather Map New forecast layout! Learn more

10-Day Weather Forecast

Advertisements
Track Severe Weather on mobile